Time;durP1;ratioP1;P1;durP2;ratioP2;P2;SDS_P1;SDS_P2;PMS_P1;PMS_P2;Temp;Humidity;BMP_temperature;BMP_pressure;BME280_temperature;BME280_humidity;BME280_pressure;Samples;Min_cycle;Max_cycle;Signal;HPM_P1;HPM_P2
2022/04/07 00:02:02;;;;;;;11.00;6.77;;;11.50;23.60;;;;;;5012582;28;20177;-70
2022/04/07 00:04:29;;;;;;;5.90;5.70;;;11.50;23.60;;;;;;5012923;28;20207;-71
2022/04/07 00:06:55;;;;;;;6.50;6.20;;;11.50;23.60;;;;;;5012811;28;20177;-71
2022/04/07 00:09:21;;;;;;;5.60;5.40;;;11.40;23.70;;;;;;5012779;28;20522;-71
2022/04/07 00:11:46;;;;;;;5.17;4.97;;;11.40;24.90;;;;;;5013093;28;20326;-70
2022/04/07 00:14:12;;;;;;;5.40;5.20;;;11.40;25.70;;;;;;5012787;28;20958;-71
2022/04/07 00:16:37;;;;;;;5.70;5.40;;;11.30;26.10;;;;;;5012765;28;20553;-71
2022/04/07 00:19:05;;;;;;;5.23;4.93;;;11.30;26.40;;;;;;5012763;28;20709;-72
2022/04/07 00:21:38;;;;;;;5.13;4.93;;;11.40;26.60;;;;;;5012405;28;20178;-71
2022/04/07 00:24:05;;;;;;;5.17;4.97;;;11.30;26.40;;;;;;5012444;28;20461;-71
2022/04/07 00:26:31;;;;;;;4.90;4.70;;;11.20;26.70;;;;;;5012344;28;20414;-70
2022/04/07 00:28:57;;;;;;;4.67;4.47;;;11.10;27.50;;;;;;5012490;28;20426;-71
2022/04/07 00:31:22;;;;;;;4.90;4.70;;;11.10;28.10;;;;;;5011980;28;20440;-71
2022/04/07 00:33:48;;;;;;;4.27;4.07;;;11.10;27.90;;;;;;5011949;28;20448;-70
2022/04/07 00:36:14;;;;;;;4.23;4.03;;;11.00;28.50;;;;;;5012443;28;20171;-71
2022/04/07 00:38:39;;;;;;;4.20;4.00;;;11.00;28.60;;;;;;5011011;28;20215;-71
2022/04/07 00:41:05;;;;;;;4.40;4.20;;;10.90;28.80;;;;;;5012561;28;20182;-70
2022/04/07 00:43:32;;;;;;;4.10;3.90;;;10.90;29.20;;;;;;5012077;28;20172;-71
2022/04/07 00:45:59;;;;;;;3.77;3.57;;;10.80;29.60;;;;;;5012552;28;20193;-72
2022/04/07 00:48:26;;;;;;;3.87;3.67;;;10.80;29.80;;;;;;5012073;28;20442;-72
2022/04/07 00:50:52;;;;;;;3.93;3.73;;;10.80;30.20;;;;;;5012438;28;20512;-70
2022/04/07 00:53:19;;;;;;;3.83;3.63;;;10.80;30.00;;;;;;5011895;28;20426;-72
2022/04/07 00:55:45;;;;;;;4.10;3.90;;;10.80;30.40;;;;;;5012283;28;20553;-71
2022/04/07 00:58:11;;;;;;;4.00;3.80;;;10.70;30.00;;;;;;5012233;28;20535;-72
2022/04/07 01:00:37;;;;;;;3.70;3.50;;;10.70;30.20;;;;;;5011920;28;20518;-72
2022/04/07 01:03:02;;;;;;;4.47;4.17;;;10.70;30.80;;;;;;5011880;28;20469;-72
2022/04/07 01:05:28;;;;;;;4.20;3.90;;;10.70;30.60;;;;;;5012165;28;20519;-70
2022/04/07 01:07:54;;;;;;;4.00;3.33;;;10.60;30.60;;;;;;5012126;28;20214;-71
2022/04/07 01:10:20;;;;;;;3.20;3.00;;;10.50;31.40;;;;;;5012376;28;20309;-70
2022/04/07 01:12:45;;;;;;;3.47;3.27;;;10.50;31.40;;;;;;5011778;28;20430;-71
2022/04/07 01:15:11;;;;;;;3.30;3.10;;;10.50;31.40;;;;;;5011778;28;20446;-71
2022/04/07 01:17:38;;;;;;;3.57;3.37;;;10.40;31.30;;;;;;5011873;28;20636;-71
2022/04/07 01:20:06;;;;;;;3.40;3.20;;;10.40;32.60;;;;;;5011929;28;20209;-71
2022/04/07 01:22:35;;;;;;;3.80;3.60;;;10.40;31.70;;;;;;5011865;28;20453;-71
2022/04/07 01:25:01;;;;;;;3.47;3.27;;;10.50;31.40;;;;;;5011908;28;20985;-71
2022/04/07 01:27:27;;;;;;;3.50;3.20;;;10.40;31.30;;;;;;5010274;28;20442;-70
2022/04/07 01:29:53;;;;;;;3.30;3.10;;;10.50;31.50;;;;;;5011635;28;20183;-73
2022/04/07 01:32:45;;;;;;;3.03;2.87;;;10.50;31.40;;;;;;5011876;28;20492;-72
2022/04/07 01:35:12;;;;;;;4.30;3.90;;;10.50;31.00;;;;;;5014132;28;20901;-72
2022/04/07 01:37:40;;;;;;;3.00;2.80;;;10.50;31.00;;;;;;5013300;28;20425;-73
2022/04/07 01:40:10;;;;;;;3.70;3.50;;;10.50;30.80;;;;;;5012075;28;20889;-72
2022/04/07 01:42:38;;;;;;;3.60;3.40;;;10.50;30.00;;;;;;5011728;28;20446;-70
2022/04/07 01:45:05;;;;;;;3.70;3.50;;;10.40;30.20;;;;;;5011612;28;20449;-72
2022/04/07 01:47:34;;;;;;;3.57;3.37;;;10.30;31.20;;;;;;5014558;28;20422;-72
2022/04/07 01:50:10;;;;;;;3.30;3.10;;;10.40;31.30;;;;;;5015233;28;20479;-72
2022/04/07 01:52:38;;;;;;;3.40;3.20;;;10.40;31.30;;;;;;5015471;28;20441;-72
2022/04/07 01:55:04;;;;;;;3.80;3.60;;;10.40;31.30;;;;;;5015238;28;20775;-71
2022/04/07 01:57:31;;;;;;;4.00;3.80;;;10.40;30.30;;;;;;5014899;28;20431;-71
2022/04/07 01:59:58;;;;;;;4.43;4.13;;;10.40;30.30;;;;;;5015065;28;20473;-70
2022/04/07 02:02:24;;;;;;;3.80;3.60;;;10.30;29.80;;;;;;5015567;28;20422;-71
2022/04/07 02:04:56;;;;;;;4.07;3.87;;;10.30;30.00;;;;;;5015194;28;20459;-71
2022/04/07 02:07:21;;;;;;;4.10;3.90;;;10.30;29.90;;;;;;5015115;28;20422;-71
2022/04/07 02:09:47;;;;;;;4.27;3.97;;;10.30;29.80;;;;;;5015054;28;20434;-71
2022/04/07 02:12:14;;;;;;;4.50;4.30;;;10.30;29.10;;;;;;5015155;28;20579;-71
2022/04/07 02:14:39;;;;;;;4.40;4.20;;;10.30;28.60;;;;;;5015106;28;20220;-70
2022/04/07 02:17:06;;;;;;;4.50;4.30;;;10.40;28.40;;;;;;5014691;28;20414;-71
2022/04/07 02:19:32;;;;;;;4.37;4.17;;;10.30;27.80;;;;;;5014708;28;20203;-71
2022/04/07 02:21:58;;;;;;;4.73;4.53;;;10.40;27.40;;;;;;5014977;28;20763;-70
2022/04/07 02:24:23;;;;;;;4.97;4.77;;;10.40;27.00;;;;;;5014758;28;20463;-71
2022/04/07 02:26:49;;;;;;;5.30;5.10;;;10.40;26.20;;;;;;5014527;28;20698;-72
2022/04/07 02:29:14;;;;;;;4.93;4.73;;;10.40;25.50;;;;;;5014704;28;20198;-71
2022/04/07 02:31:40;;;;;;;5.30;5.10;;;10.40;25.10;;;;;;5014987;28;20598;-71
2022/04/07 02:34:06;;;;;;;5.50;5.30;;;10.40;25.00;;;;;;5014849;28;20239;-71
2022/04/07 02:36:32;;;;;;;5.53;5.33;;;10.40;24.90;;;;;;5014478;28;20186;-71
2022/04/07 02:38:57;;;;;;;5.53;5.23;;;10.30;24.70;;;;;;5014635;28;20462;-71
2022/04/07 02:41:24;;;;;;;5.90;5.70;;;10.30;24.50;;;;;;5014401;28;20193;-72
2022/04/07 02:43:50;;;;;;;5.90;5.60;;;10.30;24.20;;;;;;5014994;28;20592;-71
2022/04/07 02:46:15;;;;;;;5.83;5.53;;;10.30;24.40;;;;;;5014756;28;20408;-71
2022/04/07 02:48:41;;;;;;;5.57;5.37;;;10.30;23.70;;;;;;5014055;28;20432;-71
2022/04/07 02:51:06;;;;;;;5.67;5.47;;;10.30;24.00;;;;;;5014425;28;20202;-71
2022/04/07 02:53:32;;;;;;;6.20;5.90;;;10.30;23.80;;;;;;5014522;28;20336;-71
2022/04/07 02:55:57;;;;;;;6.00;5.77;;;10.20;23.80;;;;;;5014361;28;20682;-71
2022/04/07 02:58:23;;;;;;;5.90;5.70;;;10.20;23.70;;;;;;5013125;28;20548;-71
2022/04/07 03:00:49;;;;;;;5.87;5.63;;;10.20;23.70;;;;;;5014493;28;20175;-71
2022/04/07 03:03:14;;;;;;;6.57;6.17;;;10.30;23.30;;;;;;5013859;28;20254;-71
2022/04/07 03:05:40;;;;;;;6.37;6.17;;;10.30;23.10;;;;;;5012955;28;20182;-71
2022/04/07 03:08:05;;;;;;;6.13;5.93;;;10.20;22.70;;;;;;5013906;28;20240;-72
2022/04/07 03:10:31;;;;;;;6.70;6.40;;;10.20;23.20;;;;;;5013848;28;20199;-71
2022/04/07 03:12:57;;;;;;;6.70;6.40;;;10.20;22.70;;;;;;5013993;28;20232;-71
2022/04/07 03:15:23;;;;;;;6.67;6.37;;;10.20;22.70;;;;;;5013883;28;20595;-70
2022/04/07 03:17:48;;;;;;;6.73;6.43;;;10.20;22.70;;;;;;5013520;28;20171;-70
2022/04/07 03:20:14;;;;;;;7.10;6.50;;;10.20;22.70;;;;;;5013770;28;20500;-71
2022/04/07 03:22:39;;;;;;;7.13;6.67;;;10.10;22.70;;;;;;5013861;28;20215;-70
2022/04/07 03:25:05;;;;;;;6.90;6.60;;;10.10;22.70;;;;;;5013876;28;20729;-70
2022/04/07 03:27:31;;;;;;;6.30;6.00;;;10.10;22.70;;;;;;5013869;28;20176;-70
2022/04/07 03:29:56;;;;;;;6.87;6.57;;;10.00;22.60;;;;;;5013486;28;20191;-71
2022/04/07 03:32:22;;;;;;;6.90;6.60;;;10.00;22.60;;;;;;5013475;28;20187;-72
2022/04/07 03:34:47;;;;;;;6.63;6.33;;;10.10;22.70;;;;;;5013448;28;20248;-70
2022/04/07 03:37:14;;;;;;;5.87;5.67;;;10.10;22.70;;;;;;5013347;28;20190;-70
2022/04/07 03:39:40;;;;;;;6.70;6.40;;;10.10;22.70;;;;;;5012941;28;20205;-70
2022/04/07 03:42:06;;;;;;;6.53;6.13;;;10.20;22.70;;;;;;5013562;28;20420;-70
2022/04/07 03:44:31;;;;;;;6.17;5.87;;;10.20;22.70;;;;;;5013537;28;20200;-71
2022/04/07 03:46:58;;;;;;;6.33;6.03;;;10.20;22.40;;;;;;5012974;28;20472;-71
2022/04/07 03:49:24;;;;;;;6.73;6.33;;;10.30;22.40;;;;;;5013614;28;20235;-70
2022/04/07 03:51:49;;;;;;;6.77;6.47;;;10.30;22.30;;;;;;5013720;28;20418;-70
2022/04/07 03:54:17;;;;;;;6.67;6.37;;;10.30;22.40;;;;;;5012869;28;20244;-71
2022/04/07 03:56:43;;;;;;;6.67;6.37;;;10.30;22.10;;;;;;5012912;28;20237;-71
2022/04/07 03:59:08;;;;;;;6.60;6.30;;;10.30;22.60;;;;;;5012861;28;20466;-71
2022/04/07 04:01:35;;;;;;;6.60;6.33;;;10.30;22.20;;;;;;5013161;28;20788;-70
2022/04/07 04:04:01;;;;;;;6.10;5.90;;;10.30;22.20;;;;;;5012970;28;20233;-69
2022/04/07 04:06:27;;;;;;;6.70;6.40;;;10.20;22.30;;;;;;5012814;28;20418;-70
2022/04/07 04:08:53;;;;;;;6.90;6.60;;;10.10;22.70;;;;;;5011899;28;20425;-70
2022/04/07 04:11:18;;;;;;;6.57;6.27;;;10.10;22.70;;;;;;5012880;28;20444;-70
2022/04/07 04:13:45;;;;;;;5.97;5.77;;;10.00;22.60;;;;;;5012909;28;20228;-71
2022/04/07 04:16:11;;;;;;;6.60;6.30;;;10.00;23.00;;;;;;5012802;28;20212;-72
2022/04/07 04:18:36;;;;;;;6.60;6.30;;;10.00;22.60;;;;;;5012357;28;20878;-70
2022/04/07 04:21:02;;;;;;;6.90;6.50;;;10.00;22.60;;;;;;5011368;28;20178;-70
2022/04/07 04:23:27;;;;;;;6.40;6.10;;;10.00;22.60;;;;;;5012413;28;20195;-70
2022/04/07 04:25:53;;;;;;;6.50;6.20;;;10.00;22.60;;;;;;5012798;28;20178;-70
2022/04/07 04:28:18;;;;;;;5.73;5.43;;;10.00;22.70;;;;;;5012201;28;20262;-70
2022/04/07 04:30:44;;;;;;;6.20;5.90;;;10.00;22.60;;;;;;5012445;28;20230;-71
2022/04/07 04:33:10;;;;;;;6.07;5.87;;;9.90;23.30;;;;;;5012498;28;20540;-73
2022/04/07 04:35:36;;;;;;;6.43;6.13;;;9.90;23.30;;;;;;5012333;28;20200;-71
2022/04/07 04:38:01;;;;;;;6.17;5.87;;;9.80;23.20;;;;;;5011893;28;20441;-71
2022/04/07 04:40:27;;;;;;;6.33;6.03;;;9.70;23.50;;;;;;5012401;28;20217;-71
2022/04/07 04:42:52;;;;;;;6.00;5.80;;;9.70;23.80;;;;;;5012852;28;20192;-70
2022/04/07 04:45:18;;;;;;;6.60;6.30;;;9.60;23.70;;;;;;5011359;28;20231;-70
2022/04/07 04:47:43;;;;;;;5.60;5.40;;;9.60;23.40;;;;;;5012437;28;20184;-70
2022/04/07 04:50:12;;;;;;;6.63;6.40;;;9.60;23.60;;;;;;5012548;28;20445;-70
2022/04/07 04:52:38;;;;;;;6.57;6.27;;;9.70;23.10;;;;;;5012597;28;20191;-71
2022/04/07 04:55:04;;;;;;;6.67;6.37;;;9.70;23.20;;;;;;5012472;28;20996;-74
2022/04/07 04:57:30;;;;;;;7.00;6.60;;;9.80;23.10;;;;;;5012390;28;20957;-71
2022/04/07 04:59:56;;;;;;;7.03;6.73;;;9.90;23.30;;;;;;5012282;28;20467;-70
2022/04/07 05:02:21;;;;;;;7.20;6.90;;;9.90;22.60;;;;;;5012309;28;20662;-71
2022/04/07 05:04:47;;;;;;;7.00;6.70;;;10.00;21.70;;;;;;5012160;28;20566;-71
2022/04/07 05:07:12;;;;;;;6.93;6.63;;;10.10;21.80;;;;;;5011989;28;20187;-73
2022/04/07 05:09:38;;;;;;;7.60;7.30;;;10.20;21.30;;;;;;5012874;28;20178;-71
2022/04/07 05:12:05;;;;;;;7.33;7.03;;;10.30;21.10;;;;;;5011924;28;20251;-71
2022/04/07 05:14:30;;;;;;;7.07;6.77;;;10.30;21.10;;;;;;5011740;28;20457;-71
2022/04/07 05:16:56;;;;;;;7.87;7.57;;;10.40;20.80;;;;;;5011998;28;20772;-71
2022/04/07 05:19:21;;;;;;;7.43;7.03;;;10.50;20.50;;;;;;5011870;28;20546;-70
2022/04/07 05:21:49;;;;;;;7.47;7.17;;;10.60;20.30;;;;;;5015716;28;20170;-71
2022/04/07 05:24:19;;;;;;;7.70;7.40;;;10.60;20.50;;;;;;5015967;28;20225;-67
2022/04/07 05:26:45;;;;;;;8.60;8.30;;;10.70;19.70;;;;;;5015671;28;20419;-72
2022/04/07 05:29:11;;;;;;;8.00;7.70;;;10.80;19.60;;;;;;5015796;28;20433;-72
2022/04/07 05:31:36;;;;;;;8.07;7.77;;;10.80;19.50;;;;;;5015811;28;20919;-71
2022/04/07 05:34:02;;;;;;;7.97;7.67;;;10.90;19.60;;;;;;5015399;28;20672;-71
2022/04/07 05:36:28;;;;;;;8.60;8.30;;;11.00;19.70;;;;;;5015379;28;20194;-71
2022/04/07 05:38:53;;;;;;;8.73;8.33;;;11.00;19.50;;;;;;5015413;28;20205;-72
2022/04/07 05:41:19;;;;;;;10.40;10.00;;;10.90;19.50;;;;;;5016003;28;20262;-71
2022/04/07 05:43:45;;;;;;;9.17;8.67;;;11.00;19.80;;;;;;5015584;28;20750;-70
2022/04/07 05:46:10;;;;;;;8.23;7.93;;;11.10;19.40;;;;;;5015871;28;20171;-70
2022/04/07 05:48:36;;;;;;;8.77;8.43;;;11.10;19.10;;;;;;5014796;28;20328;-72
2022/04/07 05:51:01;;;;;;;9.10;8.70;;;11.20;19.20;;;;;;5014221;28;21009;-72
2022/04/07 05:53:27;;;;;;;9.10;8.70;;;11.30;18.90;;;;;;5015588;28;20183;-71
2022/04/07 05:55:53;;;;;;;8.80;8.50;;;11.30;18.90;;;;;;5015421;28;20182;-71
2022/04/07 05:58:19;;;;;;;9.20;8.80;;;11.30;18.70;;;;;;5015101;28;20819;-70
2022/04/07 06:00:45;;;;;;;8.43;8.13;;;11.30;18.70;;;;;;5015382;28;20647;-71
2022/04/07 06:03:11;;;;;;;9.30;8.93;;;11.40;18.10;;;;;;5015233;28;20443;-70
2022/04/07 06:05:37;;;;;;;9.77;9.37;;;11.50;18.00;;;;;;5015044;28;20512;-70
2022/04/07 06:08:03;;;;;;;9.63;9.23;;;11.50;17.20;;;;;;5015026;28;20510;-71
2022/04/07 06:10:29;;;;;;;10.00;9.60;;;11.70;17.50;;;;;;5013647;28;20544;-68
2022/04/07 06:12:55;;;;;;;9.60;9.30;;;11.80;17.40;;;;;;5015141;28;20200;-68
2022/04/07 06:15:20;;;;;;;9.63;9.33;;;11.80;16.80;;;;;;5013421;28;20444;-68
2022/04/07 06:17:46;;;;;;;9.53;9.23;;;11.90;16.80;;;;;;4994630;28;20250;-68
2022/04/07 06:20:13;;;;;;;10.83;10.30;;;12.00;16.20;;;;;;4995770;28;20208;-68
2022/04/07 06:22:40;;;;;;;10.23;9.87;;;12.10;15.90;;;;;;4997011;28;20188;-70
2022/04/07 06:25:07;;;;;;;10.07;9.67;;;12.10;16.10;;;;;;4995333;28;20451;-69
2022/04/07 06:27:37;;;;;;;9.93;9.53;;;12.40;15.70;;;;;;4995080;28;20412;-69
2022/04/07 06:30:09;;;;;;;10.90;10.50;;;12.50;15.60;;;;;;4995121;28;20503;-70
2022/04/07 06:32:35;;;;;;;10.50;10.10;;;12.60;15.80;;;;;;4994299;28;20479;-69
2022/04/07 06:35:01;;;;;;;10.57;10.17;;;12.70;14.60;;;;;;5006965;28;20455;-70
2022/04/07 06:37:27;;;;;;;9.80;9.40;;;12.70;14.50;;;;;;5014330;28;20235;-69
2022/04/07 06:40:01;;;;;;;10.87;10.47;;;12.70;14.90;;;;;;5014538;28;20459;-69
2022/04/07 06:42:27;;;;;;;10.37;9.97;;;12.80;15.20;;;;;;5014556;28;20449;-68
2022/04/07 06:44:54;;;;;;;10.27;9.87;;;12.70;14.80;;;;;;5011216;28;20454;-69
2022/04/07 06:47:21;;;;;;;10.17;9.77;;;12.70;15.10;;;;;;5009757;28;20388;-67
2022/04/07 06:49:51;;;;;;;10.90;10.50;;;12.70;15.10;;;;;;5009738;28;20469;-68
2022/04/07 06:52:17;;;;;;;11.40;11.00;;;12.70;14.40;;;;;;5009997;28;21100;-69
2022/04/07 06:54:42;;;;;;;10.50;10.10;;;12.80;14.50;;;;;;5008415;28;20517;-68
2022/04/07 06:57:08;;;;;;;10.70;10.20;;;13.00;14.30;;;;;;5009749;28;20451;-68
2022/04/07 06:59:33;;;;;;;11.30;10.50;;;13.00;14.00;;;;;;5009921;28;20205;-69
2022/04/07 07:01:59;;;;;;;10.70;10.30;;;13.00;13.90;;;;;;5011065;28;20184;-70
2022/04/07 07:04:24;;;;;;;11.20;10.80;;;13.00;14.00;;;;;;5009721;28;20581;-68
2022/04/07 07:06:50;;;;;;;10.67;10.27;;;13.00;13.80;;;;;;5010110;28;20587;-70
2022/04/07 07:09:16;;;;;;;10.93;10.53;;;13.00;14.30;;;;;;5012263;28;20421;-69
2022/04/07 07:11:41;;;;;;;11.90;11.40;;;13.00;13.60;;;;;;5012692;28;20270;-69
2022/04/07 07:14:07;;;;;;;11.30;10.90;;;12.90;14.40;;;;;;5012425;28;20294;-70
2022/04/07 07:16:32;;;;;;;10.83;10.43;;;13.00;14.50;;;;;;5008632;28;20281;-69
2022/04/07 07:18:58;;;;;;;11.50;10.90;;;13.00;14.00;;;;;;4999983;28;20212;-69
2022/04/07 07:21:23;;;;;;;10.73;10.33;;;13.10;13.90;;;;;;5009062;28;20701;-70
2022/04/07 07:23:49;;;;;;;10.77;10.27;;;13.00;14.10;;;;;;5011952;28;20218;-68
2022/04/07 07:26:14;;;;;;;10.57;10.17;;;13.10;14.20;;;;;;5012985;28;20200;-69
2022/04/07 07:28:40;;;;;;;11.30;10.90;;;13.20;14.60;;;;;;5012950;28;20190;-68
2022/04/07 07:31:05;;;;;;;10.67;10.27;;;13.40;14.20;;;;;;5013642;28;20272;-68
2022/04/07 07:33:31;;;;;;;10.90;10.50;;;13.40;14.20;;;;;;5013814;28;20179;-68
2022/04/07 07:35:56;;;;;;;10.80;10.40;;;13.40;14.50;;;;;;5013727;28;20290;-69
2022/04/07 07:38:22;;;;;;;10.23;9.83;;;13.40;14.00;;;;;;5014029;28;20650;-71
2022/04/07 07:40:48;;;;;;;11.40;11.00;;;13.50;14.10;;;;;;5013458;28;20252;-67
2022/04/07 07:43:14;;;;;;;11.20;10.80;;;13.50;13.60;;;;;;5013682;28;20179;-68
2022/04/07 07:45:39;;;;;;;11.10;10.60;;;13.50;13.80;;;;;;5008561;28;20518;-68
2022/04/07 07:48:05;;;;;;;11.30;10.90;;;13.50;14.20;;;;;;5008926;28;20646;-70
2022/04/07 07:50:31;;;;;;;11.37;10.97;;;13.60;13.90;;;;;;5009462;28;20188;-69
2022/04/07 07:52:56;;;;;;;10.70;10.30;;;13.60;14.00;;;;;;5005860;28;20744;-68
2022/04/07 07:55:22;;;;;;;11.60;11.20;;;13.70;13.60;;;;;;5008160;28;20575;-70
2022/04/07 07:57:47;;;;;;;11.17;10.53;;;13.60;13.80;;;;;;5008671;28;20550;-68
2022/04/07 08:00:16;;;;;;;11.00;10.60;;;13.80;13.10;;;;;;4993320;28;20201;-68
2022/04/07 08:02:43;;;;;;;11.20;10.80;;;13.90;13.50;;;;;;5001442;28;20587;-68
2022/04/07 08:05:08;;;;;;;10.73;10.33;;;13.90;13.20;;;;;;5011613;28;20454;-67
2022/04/07 08:07:41;;;;;;;11.37;10.87;;;13.80;13.50;;;;;;5012787;28;20553;-69
2022/04/07 08:10:08;;;;;;;10.47;10.07;;;13.80;13.60;;;;;;5012927;28;20179;-70
2022/04/07 08:12:33;;;;;;;10.80;10.23;;;13.70;14.30;;;;;;5012960;28;20724;-70
2022/04/07 08:14:59;;;;;;;11.00;10.60;;;13.80;14.10;;;;;;5012400;28;20523;-69
2022/04/07 08:17:24;;;;;;;10.83;10.43;;;13.80;14.10;;;;;;5012323;28;20190;-69
2022/04/07 08:19:50;;;;;;;10.83;10.43;;;13.90;13.90;;;;;;5012970;28;20212;-70
2022/04/07 08:22:16;;;;;;;11.37;10.90;;;13.90;13.90;;;;;;5012778;28;20171;-70
2022/04/07 08:24:41;;;;;;;11.43;11.03;;;14.10;13.90;;;;;;5012765;28;20222;-70
2022/04/07 08:27:07;;;;;;;11.63;11.13;;;14.20;13.90;;;;;;5013007;28;20793;-70
2022/04/07 08:29:34;;;;;;;11.10;10.70;;;14.10;13.90;;;;;;5013297;28;20657;-69
2022/04/07 08:31:59;;;;;;;11.43;11.03;;;14.20;14.10;;;;;;5013067;28;20201;-69
2022/04/07 08:34:25;;;;;;;11.60;11.20;;;14.60;14.10;;;;;;5012349;28;20427;-69
2022/04/07 08:36:51;;;;;;;12.40;11.77;;;15.10;12.80;;;;;;5012250;28;20229;-70
2022/04/07 08:39:18;;;;;;;12.33;11.70;;;15.30;12.10;;;;;;5012252;28;20212;-69
2022/04/07 08:41:45;;;;;;;12.70;12.10;;;15.20;11.50;;;;;;5012356;28;20417;-70
2022/04/07 08:44:11;;;;;;;11.30;10.90;;;15.20;12.00;;;;;;5012145;28;20477;-70
2022/04/07 08:46:39;;;;;;;12.03;11.53;;;15.20;12.20;;;;;;5012116;28;20749;-69
2022/04/07 08:49:07;;;;;;;11.33;10.83;;;15.00;13.10;;;;;;5012268;28;20422;-69
2022/04/07 08:51:32;;;;;;;11.27;10.87;;;14.90;13.00;;;;;;5012039;28;20430;-70
2022/04/07 08:53:59;;;;;;;11.07;10.67;;;15.00;13.10;;;;;;5011839;28;20990;-70
2022/04/07 08:56:24;;;;;;;12.23;11.73;;;15.30;12.60;;;;;;5008824;28;20184;-70
2022/04/07 08:58:51;;;;;;;12.40;12.00;;;15.70;12.50;;;;;;5011804;28;20462;-69
2022/04/07 09:01:16;;;;;;;11.80;11.40;;;15.90;11.90;;;;;;4997774;28;20190;-70
2022/04/07 09:03:43;;;;;;;12.60;11.90;;;16.20;11.70;;;;;;4996617;28;20992;-70
2022/04/07 09:06:09;;;;;;;12.20;11.80;;;16.40;11.40;;;;;;4992046;28;20663;-70
2022/04/07 09:08:37;;;;;;;11.60;11.20;;;16.80;10.40;;;;;;4989724;28;20482;-70
2022/04/07 09:11:05;;;;;;;12.70;12.30;;;17.00;10.60;;;;;;4992366;28;20635;-69
2022/04/07 09:13:39;;;;;;;12.33;11.93;;;17.10;10.10;;;;;;4991745;28;20831;-72
2022/04/07 09:16:07;;;;;;;12.40;11.90;;;16.90;9.50;;;;;;5003042;28;20419;-69
2022/04/07 09:18:36;;;;;;;11.20;10.80;;;16.80;10.30;;;;;;5004770;28;20423;-69
2022/04/07 09:21:06;;;;;;;12.37;11.87;;;16.50;12.10;;;;;;4993561;28;20898;-69
2022/04/07 09:23:39;;;;;;;11.60;11.20;;;16.50;13.30;;;;;;4992099;28;20759;-69
2022/04/07 09:26:04;;;;;;;12.10;11.70;;;16.40;13.60;;;;;;4992177;28;20453;-69
2022/04/07 09:28:32;;;;;;;12.10;11.70;;;16.50;13.40;;;;;;4998038;28;20783;-68
2022/04/07 09:30:59;;;;;;;11.73;11.33;;;16.50;13.30;;;;;;4991878;28;20653;-70
2022/04/07 09:33:26;;;;;;;11.80;11.40;;;16.60;12.30;;;;;;4992365;28;21019;-68
2022/04/07 09:36:11;;;;;;;11.30;10.90;;;16.50;12.70;;;;;;4992042;28;20431;-70
2022/04/07 09:38:38;;;;;;;11.47;11.07;;;16.90;12.30;;;;;;5009752;28;20427;-69
2022/04/07 09:41:06;;;;;;;12.23;11.77;;;17.30;11.20;;;;;;5011373;28;20458;-71
2022/04/07 09:43:53;;;;;;;13.37;12.33;;;17.30;10.20;;;;;;5011463;28;20419;-70
2022/04/07 09:46:20;;;;;;;12.07;11.67;;;17.30;10.20;;;;;;5006766;28;20416;-69
2022/04/07 09:49:00;;;;;;;13.40;12.90;;;17.30;9.90;;;;;;4991907;28;20406;-70
2022/04/07 09:51:27;;;;;;;13.13;12.63;;;17.30;9.90;;;;;;4997508;28;20778;-71
2022/04/07 09:53:57;;;;;;;12.20;11.80;;;17.30;10.10;;;;;;5011735;28;20430;-70
2022/04/07 09:56:27;;;;;;;12.53;12.13;;;17.20;10.00;;;;;;5011547;28;20418;-69
2022/04/07 09:58:55;;;;;;;12.97;12.57;;;17.10;9.90;;;;;;5011541;28;20500;-70
2022/04/07 10:01:21;;;;;;;12.97;12.57;;;17.20;9.60;;;;;;5011595;28;20454;-70
2022/04/07 10:03:51;;;;;;;12.80;12.30;;;17.00;8.90;;;;;;5011396;28;20443;-71
2022/04/07 10:06:18;;;;;;;12.43;11.93;;;16.90;9.70;;;;;;5011320;28;21036;-70
2022/04/07 10:08:48;;;;;;;12.60;12.00;;;16.90;9.40;;;;;;5015697;28;20415;-70
2022/04/07 10:11:15;;;;;;;11.77;11.37;;;16.70;9.80;;;;;;5015340;28;20513;-70
2022/04/07 10:13:43;;;;;;;12.63;12.23;;;16.80;10.60;;;;;;5015103;28;20489;-70
2022/04/07 10:16:10;;;;;;;12.07;11.67;;;16.90;10.00;;;;;;5014856;28;20410;-70
2022/04/07 10:18:42;;;;;;;12.33;11.93;;;16.90;10.10;;;;;;5014642;28;20423;-71
2022/04/07 10:21:12;;;;;;;12.23;11.83;;;17.10;10.20;;;;;;5014474;28;20568;-70
2022/04/07 10:23:51;;;;;;;12.13;11.63;;;17.30;10.20;;;;;;5003492;28;20477;-70
2022/04/07 10:26:18;;;;;;;11.77;11.27;;;17.30;8.80;;;;;;4996820;28;20412;-69
2022/04/07 10:28:54;;;;;;;12.80;12.30;;;17.20;9.60;;;;;;5012789;28;20959;-68
2022/04/07 10:31:19;;;;;;;12.60;12.20;;;17.20;9.10;;;;;;5010296;28;20783;-68
2022/04/07 10:33:49;;;;;;;13.00;12.50;;;17.50;9.20;;;;;;5014623;28;20438;-69
2022/04/07 10:36:16;;;;;;;12.50;12.10;;;17.40;8.90;;;;;;5014492;28;20271;-68
2022/04/07 10:38:44;;;;;;;12.50;11.97;;;17.50;9.00;;;;;;5014458;28;20418;-68
2022/04/07 10:41:10;;;;;;;12.70;12.30;;;17.50;8.50;;;;;;5014771;28;20783;-68
2022/04/07 10:43:38;;;;;;;12.43;12.03;;;17.50;8.80;;;;;;5015027;28;20445;-68
2022/04/07 10:46:06;;;;;;;12.90;12.20;;;17.10;9.90;;;;;;5014465;28;20176;-69
2022/04/07 10:48:59;;;;;;;12.30;11.80;;;16.90;9.70;;;;;;5014232;28;20778;-68
2022/04/07 10:51:45;;;;;;;13.10;12.50;;;17.20;10.10;;;;;;5014468;28;20414;-69
2022/04/07 10:54:12;;;;;;;14.40;13.83;;;17.60;9.00;;;;;;4994343;28;20819;-69
2022/04/07 10:56:41;;;;;;;15.40;14.70;;;17.70;8.60;;;;;;5012851;28;20423;-69
2022/04/07 10:59:22;;;;;;;14.97;13.90;;;17.70;8.50;;;;;;5013936;28;20459;-68
2022/04/07 11:02:10;;;;;;;12.73;12.23;;;17.20;8.50;;;;;;5012921;28;20992;-69
2022/04/07 11:04:59;;;;;;;12.00;11.60;;;16.50;9.70;;;;;;5016509;28;20801;-73
2022/04/07 11:07:25;;;;;;;12.50;11.90;;;16.40;10.20;;;;;;5013690;28;20893;-71
2022/04/07 11:10:00;;;;;;;12.63;12.13;;;16.20;11.20;;;;;;5014132;28;20899;-71
2022/04/07 11:12:29;;;;;;;13.07;12.47;;;16.30;11.10;;;;;;5014111;28;20512;-71
2022/04/07 11:15:17;;;;;;;12.40;12.00;;;16.30;10.30;;;;;;5013829;28;20838;-71
2022/04/07 11:17:46;;;;;;;12.33;11.63;;;16.30;10.90;;;;;;5013390;28;20431;-70
2022/04/07 11:20:25;;;;;;;12.93;12.47;;;16.30;10.90;;;;;;5013643;28;20528;-71
2022/04/07 11:23:13;;;;;;;12.90;12.40;;;16.20;11.10;;;;;;5013489;28;20419;-72
2022/04/07 11:25:41;;;;;;;13.73;13.13;;;16.10;11.40;;;;;;5014201;28;20419;-73
2022/04/07 11:28:18;;;;;;;12.60;12.10;;;16.00;11.40;;;;;;5013470;28;20820;-72
2022/04/07 11:31:04;;;;;;;12.73;12.23;;;16.00;11.30;;;;;;5004494;28;20446;-72
2022/04/07 11:33:39;;;;;;;13.40;12.90;;;16.10;11.10;;;;;;4993926;28;20863;-72
2022/04/07 11:36:07;;;;;;;12.93;12.43;;;16.30;11.30;;;;;;4994430;28;20423;-70
2022/04/07 11:38:37;;;;;;;12.80;12.20;;;16.20;11.20;;;;;;5013332;28;20837;-70
2022/04/07 11:41:08;;;;;;;12.17;11.67;;;16.30;10.90;;;;;;5013151;28;20457;-70
2022/04/07 11:43:40;;;;;;;12.20;11.70;;;16.60;10.80;;;;;;4993911;28;20436;-70
2022/04/07 11:46:06;;;;;;;12.50;12.00;;;16.60;10.90;;;;;;4993908;28;20809;-70
2022/04/07 11:48:34;;;;;;;12.00;11.60;;;16.50;10.80;;;;;;5010155;28;20901;-68
2022/04/07 11:51:00;;;;;;;11.77;11.27;;;16.70;11.60;;;;;;5014880;28;20411;-68
2022/04/07 11:53:29;;;;;;;12.50;11.93;;;16.90;11.20;;;;;;5013200;28;20501;-69
2022/04/07 11:55:59;;;;;;;12.70;12.10;;;17.30;10.40;;;;;;5014121;28;20403;-69
2022/04/07 11:58:28;;;;;;;13.50;12.67;;;17.60;10.50;;;;;;5013169;28;20418;-68
2022/04/07 12:00:54;;;;;;;12.10;11.70;;;17.80;9.80;;;;;;5014624;28;20466;-69
2022/04/07 12:03:19;;;;;;;12.10;11.70;;;17.70;9.90;;;;;;5014126;28;20892;-68
2022/04/07 12:05:47;;;;;;;13.10;12.40;;;17.50;10.00;;;;;;4994658;28;20192;-69
2022/04/07 12:08:14;;;;;;;12.70;11.90;;;17.50;10.40;;;;;;5012898;28;20270;-70
2022/04/07 12:10:42;;;;;;;11.70;11.30;;;17.20;10.40;;;;;;5023200;28;20488;-70
2022/04/07 12:13:08;;;;;;;11.47;11.07;;;17.20;11.50;;;;;;5013036;28;20431;-70
2022/04/07 12:15:35;;;;;;;13.10;12.50;;;17.10;12.10;;;;;;5012984;28;20450;-70
2022/04/07 12:18:08;;;;;;;12.60;12.10;;;17.20;10.20;;;;;;5012344;28;20457;-69
2022/04/07 12:20:38;;;;;;;12.63;11.87;;;17.20;10.60;;;;;;5014502;28;20832;-72
2022/04/07 12:23:13;;;;;;;12.67;11.93;;;17.10;10.10;;;;;;5010762;28;20434;-70
2022/04/07 12:25:41;;;;;;;11.73;11.33;;;17.00;10.60;;;;;;5022603;28;20434;-70
2022/04/07 12:28:16;;;;;;;13.00;12.50;;;17.20;10.20;;;;;;5012978;28;20473;-69
2022/04/07 12:30:52;;;;;;;12.17;11.77;;;17.30;10.30;;;;;;5013178;28;20939;-69
2022/04/07 12:33:40;;;;;;;11.77;11.37;;;17.30;10.00;;;;;;5013842;28;20418;-69
2022/04/07 12:36:08;;;;;;;11.97;11.57;;;17.30;9.70;;;;;;5013593;28;20411;-69
2022/04/07 12:38:35;;;;;;;11.57;11.17;;;17.20;10.10;;;;;;5012875;28;20780;-69
2022/04/07 12:41:16;;;;;;;11.50;11.10;;;17.20;10.10;;;;;;5013375;28;20454;-69